Bremerhaven, Germany

1:06 AM CET on March 29, 2015 (GMT +0100)
Weserdeich | | Change Station
CLOSE
Current Station
Personal Weather Station
Location: Bremerhaven, BREMEN
Elevation: 10 ft
Nearby Weather Stations

Elev 10 ft 53.55 °N, 8.57 °E | Updated 11 seconds ago

Mostly Cloudy
Mostly Cloudy
54.9 °F
Feels Like 54.9 °F
N
10.5
Wind Variable Wind from SSW
Gusts 12.3 mph

Today
High -- | Low -- °F
--% Chance of Precip.
Yesterday
High -- | Low -- °F
Precip. -- in
7:07 AM 7:54 PM
Waxing Gibbous, 66% visible
Pressure 29.62 in
Visibility 5.0 miles
Clouds Mostly Cloudy 700 ft
Dew Point 54 °F
Humidity 97%
Rainfall 0.00 in
Snow Depth Not available.
UV 0.0 out of 12
Pollen Not available.
Air Quality Not available.
Flu Activity Not available.
METAR EDDW 282350Z 22011KT 8000 BKN007 10/10 Q1003

More Conditions Fewer Conditions

Pressure 29.62 in
Visibility 5.0 miles
Clouds Mostly Cloudy 700 ft
Dew Point 54 °F
Humidity 97%
Rainfall 0.00 in
Snow Depth Not available.
UV 0.0 out of 12
Pollen Not available.
Air Quality Not available.
Flu Activity Not available.
METAR EDDW 282350Z 22011KT 8000 BKN007 10/10 Q1003

More Conditions Fewer Conditions

10-Day Weather Forecast

Almanac

Astronomy

Mar. 29, 2015 Rise Set
Actual Time
Civil Twilight
Nautical Twilight
Astronomical Twilight
Moon
Length of Visible Light
Length of Day
Tomorrow will be .
, % of the Moon is Illuminated

Today's Extremes

Country Highs Country Lows

Community

WunderPhotos

Upload Photos

1,809,130 photos uploaded!

WunderBlogs® & News

Nearby

Air Quality

  Air Quality AQ Index Pollutant
Not available.

Snow Depth

Station Depth Elevation

Earthquake Activity

City Distance Mag. Time & Date
Minimum magnitude displayed is 2.5.

Coastal Water Temperatures

Place Temperature

Stations

Nearby Weather Stations

Station Location Temp. Windchill Dew Point Humidity Wind Precip. Elev Updated Type